Time;durP1;ratioP1;P1;durP2;ratioP2;P2;SDS_P1;SDS_P2;PMS_P1;PMS_P2;Temp;Humidity;BMP_temperature;BMP_pressure;BME280_temperature;BME280_humidity;BME280_pressure;Samples;Min_cycle;Max_cycle;Signal;HPM_P1;HPM_P2
2022/10/15 00:02:00;;;;;;;29.45;15.45;;;12.90;99.90;;;;;;5051485;28;20079;-73
2022/10/15 00:04:28;;;;;;;26.20;15.25;;;12.90;99.90;;;;;;5051603;28;20056;-72
2022/10/15 00:06:54;;;;;;;28.38;15.82;;;12.90;99.90;;;;;;5035265;28;20486;-73
2022/10/15 00:09:21;;;;;;;29.23;15.63;;;12.90;99.90;;;;;;5051253;28;20041;-73
2022/10/15 00:11:47;;;;;;;28.65;15.23;;;12.90;99.90;;;;;;5049053;28;20896;-73
2022/10/15 00:14:14;;;;;;;;;;;12.90;99.90;;;;;;5051138;28;20048;-73
2022/10/15 00:16:40;;;;;;;30.52;15.30;;;12.90;99.90;;;;;;5051387;28;20011;-73
2022/10/15 00:19:06;;;;;;;32.10;16.23;;;12.90;99.90;;;;;;5052136;28;20051;-73
2022/10/15 00:21:33;;;;;;;26.60;14.85;;;12.90;99.90;;;;;;5051606;28;20049;-73
2022/10/15 00:24:00;;;;;;;28.98;14.95;;;12.90;99.90;;;;;;5049593;28;20045;-73
2022/10/15 00:26:31;;;;;;;27.60;14.65;;;12.90;99.90;;;;;;5047365;28;20433;-73
2022/10/15 00:29:02;;;;;;;27.13;15.23;;;12.90;99.90;;;;;;5051363;28;20047;-73
2022/10/15 00:31:30;;;;;;;29.00;15.18;;;12.90;99.90;;;;;;5034925;28;20043;-73
2022/10/15 00:33:59;;;;;;;26.52;15.02;;;12.80;99.90;;;;;;5050712;28;20318;-73
2022/10/15 00:36:28;;;;;;;27.83;14.73;;;12.90;99.90;;;;;;5051369;28;20422;-73
2022/10/15 00:38:55;;;;;;;27.85;15.23;;;12.90;99.90;;;;;;5052108;28;20072;-73
2022/10/15 00:41:29;;;;;;;25.27;13.70;;;12.90;99.90;;;;;;5052111;28;20045;-73
2022/10/15 00:44:01;;;;;;;25.00;13.68;;;12.90;99.90;;;;;;5031430;28;20107;-73
2022/10/15 00:46:37;;;;;;;28.65;15.63;;;12.90;99.90;;;;;;5030625;28;20380;-73
2022/10/15 00:49:37;;;;;;;37.57;16.40;;;12.90;99.90;;;;;;5043950;28;20361;-73
2022/10/15 00:52:07;;;;;;;27.27;14.60;;;12.90;99.90;;;;;;5049067;28;20074;-73
2022/10/15 00:54:39;;;;;;;27.50;15.35;;;12.90;99.90;;;;;;5034032;28;20043;-73
2022/10/15 00:57:07;;;;;;;26.20;14.27;;;12.90;99.90;;;;;;5048223;28;20036;-73
2022/10/15 00:59:40;;;;;;;30.33;15.95;;;12.90;99.90;;;;;;5046779;28;20051;-73
2022/10/15 01:02:06;;;;;;;23.90;14.88;;;12.90;99.90;;;;;;5043402;28;20063;-73
2022/10/15 01:04:33;;;;;;;26.85;15.27;;;12.90;99.90;;;;;;5045645;28;20053;-73
2022/10/15 01:06:59;;;;;;;27.08;14.98;;;12.90;99.90;;;;;;5041748;28;20076;-73
2022/10/15 01:09:25;;;;;;;31.85;15.80;;;12.90;99.90;;;;;;5044863;28;20083;-73
2022/10/15 01:11:52;;;;;;;31.52;15.63;;;12.90;99.90;;;;;;5049285;28;20467;-73
2022/10/15 01:14:33;;;;;;;29.20;15.05;;;12.90;99.90;;;;;;5049986;28;20080;-73
2022/10/15 01:17:36;;;;;;;28.50;15.43;;;12.90;99.90;;;;;;5042492;28;20105;-73
2022/10/15 01:20:46;;;;;;;25.42;14.48;;;12.90;99.90;;;;;;5051151;28;20036;-73
2022/10/15 01:23:42;;;;;;;25.33;13.88;;;12.90;99.90;;;;;;5043293;28;20053;-73
2022/10/15 01:26:26;;;;;;;26.67;14.85;;;12.90;99.90;;;;;;5032695;28;20064;-73
2022/10/15 01:29:31;;;;;;;28.52;15.63;;;12.90;99.90;;;;;;5043044;28;20056;-73
2022/10/15 01:32:26;;;;;;;28.75;15.27;;;12.90;99.90;;;;;;5047091;28;20414;-73
2022/10/15 01:34:59;;;;;;;31.42;15.13;;;12.90;99.90;;;;;;5056743;28;20039;-73
2022/10/15 01:37:25;;;;;;;28.50;15.52;;;12.90;99.90;;;;;;5048372;28;20402;-73
2022/10/15 01:39:56;;;;;;;31.20;14.93;;;12.90;99.90;;;;;;5046494;28;20116;-74
2022/10/15 01:42:27;;;;;;;29.50;15.73;;;12.90;99.90;;;;;;5046055;28;20104;-74
2022/10/15 01:44:58;;;;;;;31.30;15.25;;;12.90;99.90;;;;;;5044798;28;20040;-74
2022/10/15 01:47:35;;;;;;;31.38;15.13;;;12.90;99.90;;;;;;5026578;28;20628;-74
2022/10/15 01:50:03;;;;;;;26.17;14.80;;;12.90;99.90;;;;;;5046798;28;20098;-74
2022/10/15 01:52:32;;;;;;;25.77;14.27;;;12.80;99.90;;;;;;5048093;28;20512;-74
2022/10/15 01:54:59;;;;;;;27.75;14.73;;;12.80;99.90;;;;;;5045097;28;20052;-74
2022/10/15 01:57:28;;;;;;;25.98;14.65;;;12.90;99.90;;;;;;5039624;28;20037;-74
2022/10/15 01:59:54;;;;;;;29.95;15.48;;;12.90;99.90;;;;;;5044690;28;20599;-74
2022/10/15 02:02:20;;;;;;;26.27;13.93;;;12.80;99.90;;;;;;5045096;28;20093;-74
2022/10/15 02:04:45;;;;;;;27.50;14.43;;;12.80;99.90;;;;;;5027611;28;20045;-74
2022/10/15 02:07:39;;;;;;;26.53;13.97;;;12.90;99.90;;;;;;5044628;28;20039;-74
2022/10/15 02:10:14;;;;;;;29.25;14.75;;;12.90;99.90;;;;;;5040974;28;20037;-74
2022/10/15 02:13:01;;;;;;;25.95;13.55;;;12.90;99.90;;;;;;5049669;28;20549;-74
2022/10/15 02:15:51;;;;;;;25.25;14.23;;;12.90;99.90;;;;;;5049564;28;20126;-74
2022/10/15 02:18:27;;;;;;;27.10;13.88;;;12.90;99.90;;;;;;5040600;28;20056;-74
2022/10/15 02:21:11;;;;;;;21.33;12.53;;;12.90;99.90;;;;;;5044829;28;20041;-74
2022/10/15 02:23:55;;;;;;;25.33;12.85;;;12.90;99.90;;;;;;5046208;28;20125;-74
2022/10/15 02:26:25;;;;;;;27.15;13.30;;;12.90;99.90;;;;;;5046677;28;20506;-74
2022/10/15 02:28:54;;;;;;;26.05;12.65;;;12.90;99.90;;;;;;5044828;28;20495;-74
2022/10/15 02:31:21;;;;;;;26.35;12.60;;;12.90;99.90;;;;;;5044289;28;20037;-74
2022/10/15 02:33:49;;;;;;;21.35;12.48;;;12.90;99.90;;;;;;5040885;28;20490;-74
2022/10/15 02:36:32;;;;;;;25.48;13.63;;;12.90;99.90;;;;;;5059058;22;20040;-87
2022/10/15 02:39:00;;;;;;;26.60;13.70;;;12.90;99.90;;;;;;5080953;28;20060;-88
2022/10/15 02:41:29;;;;;;;25.15;14.27;;;12.80;99.90;;;;;;5071353;28;20075;-87
2022/10/15 02:43:57;;;;;;;27.13;14.65;;;12.90;99.90;;;;;;5084501;28;20119;-87
2022/10/15 02:46:23;;;;;;;29.08;14.90;;;12.80;99.90;;;;;;5083675;28;20117;-88
2022/10/15 02:49:20;;;;;;;25.73;14.10;;;12.90;99.90;;;;;;5068534;28;20044;-88
2022/10/15 02:51:45;;;;;;;32.10;14.45;;;12.90;99.90;;;;;;5068324;28;20373;-88
2022/10/15 02:54:11;;;;;;;28.60;13.98;;;12.90;99.90;;;;;;5080957;28;20036;-89
2022/10/15 02:56:40;;;;;;;35.40;15.98;;;12.80;99.90;;;;;;5076455;28;20056;-87
2022/10/15 02:59:06;;;;;;;31.95;15.68;;;12.90;99.90;;;;;;5066458;28;20439;-88
2022/10/15 03:01:35;;;;;;;27.98;14.82;;;12.80;99.90;;;;;;5065499;28;20141;-88
2022/10/15 03:04:11;;;;;;;28.17;13.90;;;12.90;99.90;;;;;;5080870;28;20527;-88
2022/10/15 03:06:39;;;;;;;28.42;14.35;;;12.80;99.90;;;;;;5072376;28;20092;-89
2022/10/15 03:09:05;;;;;;;27.55;14.18;;;12.70;99.90;;;;;;5069213;28;20028;-88
2022/10/15 03:11:31;;;;;;;28.45;14.32;;;12.80;99.90;;;;;;5081595;28;20048;-88
2022/10/15 03:14:33;;;;;;;;;;;;;;;;;;;;;
2022/10/15 03:17:19;;;;;;;26.08;13.80;;;12.70;99.90;;;;;;5060799;28;20512;-88
2022/10/15 03:19:45;;;;;;;27.05;13.95;;;12.70;99.90;;;;;;5078710;28;20049;-90
2022/10/15 03:22:50;;;;;;;29.38;14.52;;;12.70;99.90;;;;;;5062453;28;20128;-88
2022/10/15 03:25:19;;;;;;;28.10;14.30;;;12.70;99.90;;;;;;5003880;28;20050;-87
2022/10/15 03:27:51;;;;;;;29.77;15.35;;;12.70;99.90;;;;;;5088902;28;20514;-87
2022/10/15 03:30:22;;;;;;;24.40;13.48;;;12.70;99.90;;;;;;5075735;28;20040;-87
2022/10/15 03:32:54;;;;;;;22.45;12.88;;;12.70;99.90;;;;;;5090375;28;20117;-88
2022/10/15 03:35:25;;;;;;;30.00;15.13;;;12.70;99.90;;;;;;5074924;28;20035;-89
2022/10/15 03:38:09;;;;;;;31.05;15.13;;;12.80;99.90;;;;;;5086725;28;20613;-88
2022/10/15 03:40:40;;;;;;;30.30;14.07;;;12.70;99.90;;;;;;5069371;28;20484;-90
2022/10/15 03:43:06;;;;;;;26.90;14.75;;;12.70;99.90;;;;;;5073147;28;20101;-87
2022/10/15 03:45:31;;;;;;;29.73;14.90;;;12.70;99.90;;;;;;5065606;28;20044;-88
2022/10/15 03:48:04;;;;;;;25.30;13.70;;;12.70;99.90;;;;;;5089663;28;20777;-87
2022/10/15 03:50:34;;;;;;;27.10;14.07;;;12.70;99.90;;;;;;5070196;28;20047;-88
2022/10/15 03:53:04;;;;;;;35.22;15.30;;;12.70;99.90;;;;;;5076138;28;20103;-86
2022/10/15 03:55:33;;;;;;;28.30;14.38;;;12.70;99.90;;;;;;5085094;28;20131;-87
2022/10/15 03:58:22;;;;;;;27.90;14.45;;;12.70;99.90;;;;;;5077351;28;20044;-88
2022/10/15 04:00:54;;;;;;;30.92;14.60;;;12.70;99.90;;;;;;5090821;28;20048;-86
2022/10/15 04:03:19;;;;;;;27.80;15.30;;;12.70;99.90;;;;;;5092662;28;20062;-87
2022/10/15 04:05:54;;;;;;;31.00;15.90;;;12.70;99.90;;;;;;5095424;28;20040;-87
2022/10/15 04:08:19;;;;;;;31.30;15.27;;;12.70;99.90;;;;;;5069268;28;20783;-89
2022/10/15 04:10:50;;;;;;;31.23;15.48;;;12.70;99.90;;;;;;5086009;28;20040;-87
2022/10/15 04:13:30;;;;;;;29.83;14.95;;;12.70;99.90;;;;;;5093094;28;20121;-86
2022/10/15 04:15:59;;;;;;;33.22;15.82;;;12.70;99.90;;;;;;5085415;28;20523;-87
2022/10/15 04:18:37;;;;;;;31.15;16.25;;;12.70;99.90;;;;;;5089573;28;20044;-88
2022/10/15 04:21:03;;;;;;;30.65;15.52;;;12.70;99.90;;;;;;5087436;28;20035;-87
2022/10/15 04:23:29;;;;;;;28.93;15.43;;;12.70;99.90;;;;;;5088181;28;20119;-88
2022/10/15 04:26:19;;;;;;;30.10;15.35;;;12.70;99.90;;;;;;5075554;28;20036;-87
2022/10/15 04:29:32;;;;;;;31.55;14.98;;;12.70;99.90;;;;;;5086455;28;20044;-87
2022/10/15 04:31:58;;;;;;;29.45;14.68;;;12.60;99.90;;;;;;5092948;28;20044;-87
2022/10/15 04:34:45;;;;;;;31.73;16.23;;;12.60;99.90;;;;;;5089364;28;20044;-88
2022/10/15 04:37:27;;;;;;;29.55;14.57;;;12.60;99.90;;;;;;5084936;28;20047;-90
2022/10/15 04:40:02;;;;;;;28.92;15.35;;;12.60;99.90;;;;;;5086286;28;20044;-87
2022/10/15 04:42:28;;;;;;;36.35;15.05;;;12.50;99.90;;;;;;5067346;28;20066;-87
2022/10/15 04:44:54;;;;;;;;;;;12.60;99.90;;;;;;5066105;28;20048;-88
2022/10/15 04:47:23;;;;;;;25.20;13.55;;;12.60;99.90;;;;;;5089008;28;20376;-88
2022/10/15 04:49:52;;;;;;;33.08;14.85;;;12.60;99.90;;;;;;5090962;28;20036;-87
2022/10/15 04:52:30;;;;;;;34.28;16.13;;;12.60;99.90;;;;;;5076928;28;20089;-88
2022/10/15 04:55:21;;;;;;;;;;;;;;;;;;;;;
2022/10/15 04:58:37;;;;;;;32.30;16.63;;;12.60;99.90;;;;;;5084863;28;20163;-88
2022/10/15 05:01:05;;;;;;;36.45;16.38;;;12.60;99.90;;;;;;5082094;28;20054;-88
2022/10/15 05:03:44;;;;;;;34.30;16.65;;;12.50;99.90;;;;;;5092612;28;20040;-88
2022/10/15 05:06:15;;;;;;;34.92;16.00;;;12.50;99.90;;;;;;5096294;28;20033;-88
2022/10/15 05:09:06;;;;;;;32.00;16.10;;;12.50;99.90;;;;;;5082087;28;20036;-88
2022/10/15 05:11:38;;;;;;;29.02;14.98;;;12.50;99.90;;;;;;5075618;28;20060;-89
2022/10/15 05:14:24;;;;;;;35.05;16.83;;;12.50;99.90;;;;;;5097824;28;20053;-88
2022/10/15 05:16:57;;;;;;;29.85;15.30;;;12.50;99.90;;;;;;5102188;28;20562;-88
2022/10/15 05:19:23;;;;;;;34.03;16.48;;;12.50;99.90;;;;;;5095535;28;20044;-87
2022/10/15 05:22:22;;;;;;;;;;;;;;;;;;;;;
2022/10/15 05:24:51;;;;;;;32.97;16.35;;;12.50;99.90;;;;;;5094550;28;20081;-87
2022/10/15 05:27:17;;;;;;;33.05;17.05;;;12.40;99.90;;;;;;5087301;28;20036;-88
2022/10/15 05:29:42;;;;;;;39.30;18.27;;;12.50;99.90;;;;;;5088436;28;20047;-87
2022/10/15 05:32:08;;;;;;;38.10;16.97;;;12.40;99.90;;;;;;5087367;28;20032;-87
2022/10/15 05:34:33;;;;;;;33.53;17.33;;;12.50;99.90;;;;;;5074679;28;20036;-89
2022/10/15 05:36:59;;;;;;;34.03;16.85;;;12.40;99.90;;;;;;5092404;28;20059;-88
2022/10/15 05:39:25;;;;;;;36.05;17.73;;;12.40;99.90;;;;;;5090856;28;20039;-87
2022/10/15 05:42:23;;;;;;;35.40;18.33;;;12.40;99.90;;;;;;5092998;28;20112;-88
2022/10/15 05:44:55;;;;;;;34.67;17.67;;;12.40;99.90;;;;;;5067098;28;20043;-88
2022/10/15 05:48:16;;;;;;;38.25;18.85;;;12.40;99.90;;;;;;5095305;22;20078;-87
2022/10/15 05:50:41;;;;;;;42.42;20.90;;;12.40;99.90;;;;;;5086067;28;20079;-88
2022/10/15 05:53:39;;;;;;;41.33;18.05;;;12.40;99.90;;;;;;5086822;28;20078;-88
2022/10/15 05:56:06;;;;;;;43.17;20.58;;;12.40;99.90;;;;;;5068230;28;20089;-87
2022/10/15 05:58:41;;;;;;;36.55;18.77;;;12.40;99.90;;;;;;5087601;28;20139;-87
2022/10/15 06:01:17;;;;;;;34.20;18.90;;;12.40;99.90;;;;;;5061896;28;20045;-88
2022/10/15 06:03:46;;;;;;;36.63;19.17;;;12.40;99.90;;;;;;5081456;28;20032;-87
2022/10/15 06:06:23;;;;;;;40.58;20.48;;;12.40;99.90;;;;;;5080799;28;20586;-87
2022/10/15 06:09:03;;;;;;;39.67;19.10;;;12.40;99.90;;;;;;5065133;28;20047;-88
2022/10/15 06:11:42;;;;;;;;;;;;;;;;;;;;;
2022/10/15 06:14:46;;;;;;;41.63;20.38;;;12.40;99.90;;;;;;5082942;28;20036;-87
2022/10/15 06:17:14;;;;;;;44.30;20.83;;;12.40;99.90;;;;;;5075543;28;20488;-87
2022/10/15 06:20:10;;;;;;;45.55;21.42;;;12.40;99.90;;;;;;5083237;28;20044;-87
2022/10/15 06:22:44;;;;;;;44.85;20.48;;;12.30;99.90;;;;;;5085235;28;20035;-87
2022/10/15 06:25:23;;;;;;;41.50;20.80;;;12.40;99.90;;;;;;5080906;28;20048;-87
2022/10/15 06:27:52;;;;;;;44.45;21.77;;;12.40;99.90;;;;;;5085322;28;20040;-87
2022/10/15 06:30:42;;;;;;;43.40;19.70;;;12.40;99.90;;;;;;5063435;28;20062;-88
2022/10/15 06:33:41;;;;;;;41.83;20.45;;;12.40;99.90;;;;;;5081328;28;20049;-89
2022/10/15 06:36:29;;;;;;;41.20;20.58;;;12.40;99.90;;;;;;5030311;28;20455;-88
2022/10/15 06:39:01;;;;;;;48.03;21.33;;;12.40;99.90;;;;;;5063578;28;20044;-87
2022/10/15 06:41:38;;;;;;;42.70;20.23;;;12.40;99.90;;;;;;5083372;28;20111;-87
2022/10/15 06:44:11;;;;;;;46.63;21.17;;;12.50;99.90;;;;;;5084688;28;20063;-87
2022/10/15 06:46:42;;;;;;;43.47;20.92;;;12.40;99.90;;;;;;5083609;28;20041;-87
2022/10/15 06:49:08;;;;;;;49.83;22.88;;;12.50;99.90;;;;;;5093463;28;20043;-88
2022/10/15 06:51:36;;;;;;;42.42;20.38;;;12.50;99.90;;;;;;5083371;28;20237;-87
2022/10/15 06:54:19;;;;;;;41.78;21.80;;;12.50;99.90;;;;;;5068960;28;20131;-88
2022/10/15 06:57:13;;;;;;;;;;;;;;;;;;;;;
2022/10/15 06:59:45;;;;;;;44.92;19.77;;;12.50;99.90;;;;;;5075060;28;20048;-88
2022/10/15 07:02:20;;;;;;;39.72;20.35;;;12.50;99.90;;;;;;5085904;28;20032;-89
2022/10/15 07:07:31;;;;;;;46.50;21.08;;;12.40;99.90;;;;;;5047131;28;20159;-75
2022/10/15 07:09:56;;;;;;;44.27;21.47;;;12.50;99.90;;;;;;5064275;28;20041;-73
2022/10/15 07:12:22;;;;;;;40.33;20.23;;;12.50;99.90;;;;;;5045214;28;20383;-74
2022/10/15 07:14:48;;;;;;;50.97;21.87;;;12.50;99.90;;;;;;5048675;28;20574;-74
2022/10/15 07:17:14;;;;;;;46.88;21.45;;;12.50;99.90;;;;;;5047071;28;20049;-74
2022/10/15 07:19:40;;;;;;;;;;;12.50;99.90;;;;;;5047855;28;20075;-74
2022/10/15 07:22:05;;;;;;;41.90;20.15;;;12.50;99.90;;;;;;5046777;28;19921;-74
2022/10/15 07:24:31;;;;;;;45.63;20.93;;;12.50;99.90;;;;;;5042153;28;20042;-74
2022/10/15 07:26:57;;;;;;;41.23;20.00;;;12.50;99.90;;;;;;5040001;28;20048;-73
2022/10/15 07:29:22;;;;;;;46.57;21.37;;;12.50;99.90;;;;;;5038201;28;20394;-75
2022/10/15 07:31:48;;;;;;;47.67;21.53;;;12.50;99.90;;;;;;5047493;28;20037;-75
2022/10/15 07:34:14;;;;;;;45.00;21.02;;;12.60;99.90;;;;;;5039558;28;20072;-74
2022/10/15 07:36:39;;;;;;;47.60;22.27;;;12.60;99.90;;;;;;5044783;28;20124;-74
2022/10/15 07:39:05;;;;;;;45.17;22.73;;;12.70;99.90;;;;;;5035910;28;20053;-74
2022/10/15 07:41:31;;;;;;;44.67;20.10;;;12.70;99.90;;;;;;5043925;28;20075;-74
2022/10/15 07:43:56;;;;;;;53.90;24.05;;;12.70;99.90;;;;;;5037753;28;20029;-75
2022/10/15 07:46:22;;;;;;;51.93;22.53;;;12.70;99.90;;;;;;5040152;28;20526;-74
2022/10/15 07:48:47;;;;;;;49.73;22.37;;;12.80;99.90;;;;;;5049167;28;20234;-75
2022/10/15 07:51:13;;;;;;;46.43;21.60;;;12.80;99.90;;;;;;5049908;28;20343;-73
2022/10/15 07:53:39;;;;;;;43.17;21.90;;;12.80;99.90;;;;;;5053713;28;20277;-74
2022/10/15 07:56:09;;;;;;;45.72;21.85;;;12.80;99.90;;;;;;5046820;28;20048;-74
2022/10/15 07:58:36;;;;;;;52.20;23.33;;;12.80;99.90;;;;;;5056921;28;20070;-74
2022/10/15 08:01:04;;;;;;;46.10;22.08;;;12.80;99.90;;;;;;5039053;28;20044;-74
2022/10/15 08:03:30;;;;;;;49.15;22.75;;;12.80;99.90;;;;;;5053621;28;20053;-75
2022/10/15 08:05:58;;;;;;;44.70;21.23;;;12.80;99.90;;;;;;5041543;28;20174;-74
2022/10/15 08:08:23;;;;;;;49.75;22.73;;;12.90;99.90;;;;;;5043752;28;20119;-76
2022/10/15 08:10:49;;;;;;;46.83;22.10;;;12.80;99.90;;;;;;5039231;28;20083;-74
2022/10/15 08:13:14;;;;;;;51.70;21.50;;;12.80;99.90;;;;;;5034902;28;20036;-75
2022/10/15 08:15:41;;;;;;;48.60;21.83;;;12.90;99.90;;;;;;5036395;28;20294;-75
2022/10/15 08:18:08;;;;;;;49.33;21.90;;;13.00;99.90;;;;;;5031072;28;20037;-75
2022/10/15 08:20:38;;;;;;;52.53;23.05;;;12.90;99.90;;;;;;5029265;28;20052;-74
2022/10/15 08:23:04;;;;;;;47.95;21.45;;;12.90;99.90;;;;;;5029214;28;20108;-75
2022/10/15 08:25:31;;;;;;;;;;;12.90;99.90;;;;;;5040779;28;20124;-75
2022/10/15 08:27:57;;;;;;;45.40;19.65;;;12.90;99.90;;;;;;5030222;28;19938;-75
2022/10/15 08:30:23;;;;;;;;;;;12.90;99.90;;;;;;5033589;28;20686;-75
2022/10/15 08:32:49;;;;;;;55.47;20.13;;;13.00;99.90;;;;;;5037052;28;19948;-75
2022/10/15 08:35:14;;;;;;;43.07;19.77;;;13.00;99.90;;;;;;5060362;23;20194;-73
2022/10/15 08:37:40;;;;;;;43.50;20.35;;;13.00;99.90;;;;;;5096683;27;20284;-73
2022/10/15 08:40:06;;;;;;;44.33;19.00;;;13.00;99.90;;;;;;5096981;27;20662;-75
2022/10/15 08:42:41;;;;;;;52.55;20.23;;;13.00;99.90;;;;;;5108056;27;20307;-76
2022/10/15 08:45:20;;;;;;;47.35;21.02;;;13.10;99.90;;;;;;5101997;27;20134;-75
2022/10/15 08:47:55;;;;;;;48.92;20.35;;;13.00;99.90;;;;;;5091845;28;20097;-76
2022/10/15 08:50:34;;;;;;;49.97;20.10;;;13.00;99.90;;;;;;5096499;28;20535;-77
2022/10/15 08:53:00;;;;;;;42.78;19.23;;;13.00;99.90;;;;;;5078713;28;20497;-79
2022/10/15 08:55:34;;;;;;;43.80;20.15;;;13.10;99.90;;;;;;5098569;27;20044;-76
2022/10/15 08:58:12;;;;;;;44.72;19.30;;;13.10;99.90;;;;;;5079660;28;20075;-75
2022/10/15 09:00:50;;;;;;;42.38;20.30;;;13.10;99.90;;;;;;5093871;28;20043;-75
2022/10/15 09:03:40;;;;;;;41.42;18.95;;;13.10;99.90;;;;;;5098778;27;20170;-75
2022/10/15 09:06:44;;;;;;;45.20;19.40;;;13.10;99.90;;;;;;5089381;27;20397;-78
2022/10/15 09:09:26;;;;;;;45.35;19.10;;;13.10;99.90;;;;;;5055470;28;20479;-75
2022/10/15 09:11:55;;;;;;;39.78;18.40;;;13.10;99.90;;;;;;5099185;28;20296;-74
2022/10/15 09:14:27;;;;;;;39.45;17.35;;;13.10;99.90;;;;;;5102925;27;20382;-74
2022/10/15 09:16:53;;;;;;;37.80;18.00;;;13.10;99.90;;;;;;5103152;28;20295;-75
2022/10/15 09:19:24;;;;;;;39.88;18.08;;;13.10;99.90;;;;;;5101956;28;20120;-73
2022/10/15 09:21:51;;;;;;;41.22;18.13;;;13.00;99.90;;;;;;5095452;28;20510;-73
2022/10/15 09:24:29;;;;;;;34.42;16.83;;;13.10;99.90;;;;;;5096802;28;20047;-73
2022/10/15 09:27:33;;;;;;;33.30;16.00;;;13.10;99.90;;;;;;5077033;28;20042;-73
2022/10/15 09:30:42;;;;;;;32.47;16.00;;;13.10;99.90;;;;;;5083203;28;20093;-74
2022/10/15 09:33:34;;;;;;;32.58;14.40;;;13.10;99.90;;;;;;5091664;28;20032;-74
2022/10/15 09:36:08;;;;;;;38.05;17.83;;;13.10;99.90;;;;;;5083722;28;20517;-74
2022/10/15 09:38:54;;;;;;;37.05;16.25;;;13.20;99.90;;;;;;5094133;27;20058;-74
2022/10/15 09:41:41;;;;;;;38.63;16.10;;;13.20;99.90;;;;;;5096180;28;20413;-75
2022/10/15 09:44:12;;;;;;;34.85;15.77;;;13.20;99.90;;;;;;5093699;28;20074;-74
2022/10/15 09:46:45;;;;;;;34.53;15.32;;;13.20;99.90;;;;;;5095642;28;20550;-76
2022/10/15 09:49:22;;;;;;;31.65;14.02;;;13.20;99.90;;;;;;5096452;28;20032;-75
2022/10/15 09:52:00;;;;;;;30.38;14.50;;;13.20;99.90;;;;;;5101433;28;20048;-76
2022/10/15 09:54:39;;;;;;;31.15;14.48;;;13.20;99.90;;;;;;5094511;28;20101;-75
2022/10/15 09:57:08;;;;;;;30.85;14.18;;;13.20;99.90;;;;;;5093959;28;20040;-74
2022/10/15 09:59:34;;;;;;;29.77;13.00;;;13.20;99.90;;;;;;5094651;28;20036;-73
2022/10/15 10:02:02;;;;;;;29.67;13.40;;;13.30;99.90;;;;;;5096521;28;20047;-75
2022/10/15 10:04:30;;;;;;;28.35;12.93;;;13.30;99.90;;;;;;5097410;28;20804;-76
2022/10/15 10:07:01;;;;;;;32.22;12.85;;;13.30;99.90;;;;;;5098175;28;20402;-73
2022/10/15 10:09:49;;;;;;;31.15;14.18;;;13.30;99.90;;;;;;5095462;28;20516;-76
2022/10/15 10:12:24;;;;;;;30.05;12.45;;;13.30;99.90;;;;;;5096357;28;20035;-75
2022/10/15 10:15:01;;;;;;;27.48;13.18;;;13.30;99.90;;;;;;5096548;28;20627;-75
2022/10/15 10:17:28;;;;;;;29.75;13.73;;;13.40;99.90;;;;;;5097616;28;20039;-73
2022/10/15 10:20:14;;;;;;;28.48;12.68;;;13.40;99.90;;;;;;5069111;28;20046;-77
2022/10/15 10:22:49;;;;;;;27.52;11.70;;;13.40;99.90;;;;;;5098391;28;20043;-76
2022/10/15 10:25:35;;;;;;;27.63;13.32;;;13.50;99.90;;;;;;5097868;28;20039;-76
2022/10/15 10:28:15;;;;;;;26.05;12.43;;;13.50;99.90;;;;;;5091677;28;20136;-73
2022/10/15 10:31:03;;;;;;;25.90;11.40;;;13.60;99.90;;;;;;5090587;28;20048;-77
2022/10/15 10:33:47;;;;;;;23.60;11.63;;;13.70;99.90;;;;;;5095109;28;20516;-75
2022/10/15 10:36:19;;;;;;;20.60;10.00;;;13.70;99.90;;;;;;5094679;28;20290;-76
2022/10/15 10:39:12;;;;;;;29.60;11.38;;;13.80;99.90;;;;;;5114345;27;20058;-74
2022/10/15 10:42:15;;;;;;;20.95;9.77;;;13.80;99.90;;;;;;5096609;28;20039;-74
2022/10/15 10:44:45;;;;;;;19.10;9.13;;;13.80;99.90;;;;;;5091862;28;20101;-74
2022/10/15 10:47:17;;;;;;;22.10;9.75;;;13.80;99.90;;;;;;5096724;28;20035;-74
2022/10/15 10:49:49;;;;;;;22.13;9.43;;;13.80;99.90;;;;;;5094143;28;20040;-74
2022/10/15 10:52:31;;;;;;;18.98;9.48;;;13.90;99.90;;;;;;5100608;28;20040;-74
2022/10/15 10:55:17;;;;;;;21.67;9.80;;;13.90;99.90;;;;;;5098593;28;20035;-74
2022/10/15 10:57:51;;;;;;;18.30;8.52;;;13.90;99.90;;;;;;5105440;28;20071;-74
2022/10/15 11:00:31;;;;;;;17.42;8.95;;;13.90;99.90;;;;;;5089053;28;20098;-75
2022/10/15 11:02:57;;;;;;;18.65;9.02;;;14.00;99.90;;;;;;5104388;28;20161;-75
2022/10/15 11:05:28;;;;;;;19.40;8.75;;;14.00;99.90;;;;;;5103718;28;20238;-74
2022/10/15 11:08:10;;;;;;;16.73;8.43;;;14.00;99.90;;;;;;5097400;28;20127;-75
2022/10/15 11:10:46;;;;;;;19.20;9.07;;;14.00;99.90;;;;;;5106981;27;20055;-75
2022/10/15 11:13:51;;;;;;;15.73;7.67;;;14.10;99.90;;;;;;5082787;28;20365;-74
2022/10/15 11:16:41;;;;;;;14.02;7.50;;;14.10;99.90;;;;;;5103616;28;20255;-74
2022/10/15 11:19:13;;;;;;;15.00;7.55;;;14.10;99.90;;;;;;5095092;27;20047;-74
2022/10/15 11:21:58;;;;;;;17.40;7.78;;;14.00;99.90;;;;;;5097332;28;20485;-75
2022/10/15 11:24:31;;;;;;;16.35;8.18;;;14.20;99.90;;;;;;5100592;28;20036;-74
2022/10/15 11:27:19;;;;;;;15.13;7.47;;;14.20;99.90;;;;;;5091300;28;20093;-74
2022/10/15 11:30:02;;;;;;;14.02;6.85;;;14.20;99.90;;;;;;5102159;28;20054;-74
2022/10/15 11:32:47;;;;;;;16.20;7.30;;;14.30;99.90;;;;;;5104907;28;20123;-74
2022/10/15 11:35:28;;;;;;;11.98;6.50;;;14.40;99.90;;;;;;5102805;28;20627;-74
2022/10/15 11:38:16;;;;;;;11.98;6.47;;;14.50;99.90;;;;;;5103867;28;20067;-74
2022/10/15 11:40:57;;;;;;;14.40;7.68;;;14.50;99.90;;;;;;5089077;28;20081;-74
2022/10/15 11:43:56;;;;;;;11.80;6.05;;;14.60;99.90;;;;;;5098686;28;20063;-74
2022/10/15 11:46:43;;;;;;;12.05;6.60;;;14.70;99.90;;;;;;5099485;28;20470;-74
2022/10/15 11:49:30;;;;;;;11.38;6.03;;;14.70;99.90;;;;;;5099605;28;20032;-74
2022/10/15 11:52:05;;;;;;;12.43;6.47;;;14.80;99.90;;;;;;5100433;28;20585;-74
2022/10/15 11:54:42;;;;;;;14.00;6.78;;;14.80;99.90;;;;;;5107135;28;20051;-74
2022/10/15 11:57:14;;;;;;;11.57;6.07;;;14.90;99.90;;;;;;5096476;28;20054;-74
2022/10/15 11:59:55;;;;;;;14.88;6.50;;;14.90;99.90;;;;;;5100720;28;20124;-74
2022/10/15 12:02:28;;;;;;;14.55;7.60;;;15.00;99.90;;;;;;5094886;28;20141;-74
2022/10/15 12:05:08;;;;;;;11.10;6.40;;;14.90;99.90;;;;;;5097616;28;20778;-74
2022/10/15 12:07:46;;;;;;;12.48;6.55;;;15.00;99.90;;;;;;5101294;28;20074;-74
2022/10/15 12:10:14;;;;;;;11.85;6.60;;;15.00;99.90;;;;;;5096025;28;20039;-74
2022/10/15 12:13:00;;;;;;;12.43;6.90;;;15.00;99.90;;;;;;5103296;28;20043;-74
2022/10/15 12:15:45;;;;;;;9.80;5.75;;;15.00;99.90;;;;;;5103430;28;20043;-74
2022/10/15 12:18:23;;;;;;;11.55;6.47;;;15.00;99.90;;;;;;5105389;28;20035;-74
2022/10/15 12:20:49;;;;;;;10.23;5.88;;;15.00;99.90;;;;;;5102928;28;20392;-74
2022/10/15 12:23:35;;;;;;;12.00;5.88;;;15.00;99.90;;;;;;5105876;28;20408;-74
2022/10/15 12:26:00;;;;;;;10.68;5.82;;;15.00;99.90;;;;;;5099098;28;20170;-74
2022/10/15 12:28:30;;;;;;;10.00;5.93;;;15.00;99.90;;;;;;5100204;28;20119;-74
2022/10/15 12:31:01;;;;;;;11.63;6.80;;;15.00;99.90;;;;;;5085974;28;20092;-75
2022/10/15 12:33:56;;;;;;;10.68;6.18;;;15.00;99.90;;;;;;5099812;28;20055;-74
2022/10/15 12:36:29;;;;;;;11.05;5.78;;;15.00;99.90;;;;;;5084628;28;20071;-74
2022/10/15 12:39:06;;;;;;;11.20;6.20;;;15.00;99.90;;;;;;5093750;28;20168;-74
2022/10/15 12:41:44;;;;;;;13.00;6.40;;;15.00;99.90;;;;;;5103638;28;20043;-74
2022/10/15 12:44:31;;;;;;;10.63;5.60;;;15.00;99.90;;;;;;5100411;28;20491;-74
2022/10/15 12:46:58;;;;;;;14.63;6.32;;;14.90;99.90;;;;;;5100053;28;20118;-74
2022/10/15 12:49:27;;;;;;;11.63;6.15;;;14.90;99.90;;;;;;5099000;28;20130;-74
2022/10/15 12:51:54;;;;;;;12.35;6.05;;;14.90;99.90;;;;;;5092256;28;20040;-74
2022/10/15 12:54:39;;;;;;;13.32;5.93;;;14.90;99.90;;;;;;5098867;28;20091;-74
2022/10/15 12:57:30;;;;;;;12.43;6.30;;;14.90;99.90;;;;;;5099128;28;20036;-74
2022/10/15 13:00:00;;;;;;;10.85;6.30;;;14.90;99.90;;;;;;5096627;28;20459;-74
2022/10/15 13:02:42;;;;;;;11.50;5.80;;;14.90;99.90;;;;;;5080964;28;20341;-74
2022/10/15 13:05:22;;;;;;;11.60;6.20;;;14.80;99.90;;;;;;5095502;28;20054;-74
2022/10/15 13:07:49;;;;;;;13.45;6.10;;;14.80;99.90;;;;;;5103224;28;20039;-74
2022/10/15 13:10:28;;;;;;;9.35;5.63;;;14.80;99.90;;;;;;5100170;28;20119;-74
2022/10/15 13:13:01;;;;;;;9.95;5.80;;;14.80;99.90;;;;;;5104346;28;20120;-74
2022/10/15 13:15:29;;;;;;;9.23;5.47;;;14.80;99.90;;;;;;5103123;28;20503;-74
2022/10/15 13:17:57;;;;;;;10.27;4.60;;;14.80;99.90;;;;;;5097750;28;20082;-74
2022/10/15 13:20:29;;;;;;;11.00;5.32;;;14.80;99.90;;;;;;5099419;28;20488;-74